Time;durP1;ratioP1;P1;durP2;ratioP2;P2;SDS_P1;SDS_P2;PMS_P1;PMS_P2;Temp;Humidity;BMP_temperature;BMP_pressure;BME280_temperature;BME280_humidity;BME280_pressure;Samples;Min_cycle;Max_cycle;Signal;HPM_P1;HPM_P2
2021/03/04 00:01:31;;;;;;;7.32;4.65;;;;;;;;;;5026826;27;105270;-55
2021/03/04 00:03:56;;;;;;;7.65;4.13;;;;;;;;;;5028484;27;105404;-55
2021/03/04 00:06:22;;;;;;;6.10;4.25;;;;;;;;;;5030255;27;105843;-54
2021/03/04 00:08:47;;;;;;;6.70;4.35;;;;;;;;;;5031012;27;105910;-54
2021/03/04 00:11:13;;;;;;;7.55;4.05;;;;;;;;;;5028378;27;105569;-54
2021/03/04 00:13:38;;;;;;;6.18;4.00;;;;;;;;;;5029458;27;105409;-51
2021/03/04 00:16:04;;;;;;;6.57;4.38;;;;;;;;;;5010913;27;105089;-54
2021/03/04 00:18:29;;;;;;;6.57;4.20;;;;;;;;;;5028536;27;105837;-55
2021/03/04 00:20:55;;;;;;;6.30;4.18;;;;;;;;;;5029714;27;106873;-56
2021/03/04 00:23:20;;;;;;;8.23;4.72;;;;;;;;;;5029513;27;105004;-54
2021/03/04 00:25:46;;;;;;;6.70;4.60;;;;;;;;;;5026656;27;107439;-55
2021/03/04 00:28:11;;;;;;;7.78;4.60;;;;;;;;;;5028730;27;105406;-58
2021/03/04 00:30:37;;;;;;;6.13;4.05;;;;;;;;;;5029558;27;105141;-56
2021/03/04 00:33:02;;;;;;;5.88;4.13;;;;;;;;;;5030320;27;105490;-56
2021/03/04 00:35:28;;;;;;;6.95;3.88;;;;;;;;;;5026950;27;105388;-56
2021/03/04 00:37:53;;;;;;;6.03;3.92;;;;;;;;;;5023352;27;105488;-56
2021/03/04 00:40:20;;;;;;;6.07;3.88;;;;;;;;;;5032982;27;105071;-56
2021/03/04 00:42:45;;;;;;;4.97;3.38;;;;;;;;;;5027098;27;105350;-54
2021/03/04 00:45:18;;;;;;;5.63;3.65;;;;;;;;;;5025520;27;104994;-56
2021/03/04 00:47:44;;;;;;;5.43;3.50;;;;;;;;;;5026411;27;106080;-56
2021/03/04 00:50:10;;;;;;;6.07;3.53;;;;;;;;;;5029984;27;105103;-56
2021/03/04 00:52:35;;;;;;;4.68;3.40;;;;;;;;;;5022601;27;105768;-56
2021/03/04 00:55:01;;;;;;;5.32;3.75;;;;;;;;;;5008612;27;105913;-55
2021/03/04 00:57:26;;;;;;;6.03;3.75;;;;;;;;;;5030170;27;105336;-56
2021/03/04 00:59:52;;;;;;;4.97;3.33;;;;;;;;;;5018181;27;108469;-57
2021/03/04 01:02:17;;;;;;;6.07;3.65;;;;;;;;;;5031584;27;112504;-56
2021/03/04 01:04:43;;;;;;;6.30;4.03;;;;;;;;;;5026490;27;105672;-56
2021/03/04 01:07:08;;;;;;;6.22;4.00;;;;;;;;;;5026061;27;105922;-56
2021/03/04 01:09:34;;;;;;;5.75;3.72;;;;;;;;;;5028641;27;105285;-56
2021/03/04 01:11:59;;;;;;;6.45;3.90;;;;;;;;;;5029354;27;105849;-56
2021/03/04 01:14:25;;;;;;;6.35;3.85;;;;;;;;;;5028541;27;108313;-55
2021/03/04 01:16:50;;;;;;;5.63;3.75;;;;;;;;;;5025314;27;106372;-55
2021/03/04 01:19:16;;;;;;;5.95;4.10;;;;;;;;;;5029475;27;105086;-56
2021/03/04 01:21:41;;;;;;;5.20;3.50;;;;;;;;;;5027639;27;105865;-56
2021/03/04 01:24:07;;;;;;;5.18;3.55;;;;;;;;;;5030881;27;105699;-55
2021/03/04 01:26:33;;;;;;;5.72;3.55;;;;;;;;;;5026608;27;105764;-55
2021/03/04 01:28:59;;;;;;;7.22;4.00;;;;;;;;;;5026490;27;105513;-56
2021/03/04 01:31:24;;;;;;;5.75;3.55;;;;;;;;;;5030213;27;114421;-57
2021/03/04 01:33:50;;;;;;;7.20;4.00;;;;;;;;;;5030749;27;105172;-53
2021/03/04 01:36:15;;;;;;;6.28;3.55;;;;;;;;;;5030849;27;105098;-57
2021/03/04 01:38:41;;;;;;;4.32;3.08;;;;;;;;;;5029307;27;106467;-57
2021/03/04 01:41:06;;;;;;;4.90;3.28;;;;;;;;;;5029692;27;112036;-57
2021/03/04 01:43:32;;;;;;;5.25;3.20;;;;;;;;;;5031103;27;105337;-56
2021/03/04 01:45:57;;;;;;;6.68;3.83;;;;;;;;;;5031704;27;105973;-56
2021/03/04 01:48:23;;;;;;;7.00;3.70;;;;;;;;;;5030327;27;105813;-57
2021/03/04 01:50:48;;;;;;;4.68;3.22;;;;;;;;;;5031736;27;105068;-57
2021/03/04 01:53:14;;;;;;;5.88;3.38;;;;;;;;;;5027577;27;108919;-57
2021/03/04 01:55:39;;;;;;;4.88;3.00;;;;;;;;;;5026220;27;105439;-56
2021/03/04 01:58:05;;;;;;;6.03;3.25;;;;;;;;;;5010161;27;105669;-57
2021/03/04 02:00:30;;;;;;;3.58;2.47;;;;;;;;;;5029429;27;107412;-54
2021/03/04 02:02:56;;;;;;;5.10;2.80;;;;;;;;;;5025935;27;106166;-55
2021/03/04 02:05:22;;;;;;;5.40;3.65;;;;;;;;;;5027888;27;106248;-53
2021/03/04 02:08:04;;;;;;;2.85;2.15;;;;;;;;;;5031721;27;105790;-54
2021/03/04 02:10:39;;;;;;;5.85;3.70;;;;;;;;;;5029074;27;107837;-54
2021/03/04 02:13:42;;;;;;;6.20;3.08;;;;;;;;;;5016523;27;107300;-51
2021/03/04 02:16:47;;;;;;;5.20;2.90;;;;;;;;;;5002867;27;106365;-54
2021/03/04 02:19:27;;;;;;;5.13;2.78;;;;;;;;;;5004482;27;106706;-54
2021/03/04 02:22:07;;;;;;;5.03;2.97;;;;;;;;;;5031692;27;105684;-53
2021/03/04 02:24:47;;;;;;;6.13;2.80;;;;;;;;;;5029077;27;105728;-51
2021/03/04 02:27:16;;;;;;;3.38;2.72;;;;;;;;;;5032434;27;105251;-53
2021/03/04 02:29:44;;;;;;;4.97;2.75;;;;;;;;;;5014289;27;106020;-52
2021/03/04 02:32:10;;;;;;;5.03;2.80;;;;;;;;;;5034227;27;105654;-50
2021/03/04 02:34:38;;;;;;;4.10;3.10;;;;;;;;;;5012780;27;105455;-54
2021/03/04 02:37:04;;;;;;;3.58;2.30;;;;;;;;;;5028258;27;105107;-54
2021/03/04 02:39:30;;;;;;;2.85;2.15;;;;;;;;;;5028244;27;105957;-53
2021/03/04 02:41:55;;;;;;;3.60;2.55;;;;;;;;;;4999304;27;106052;-54
2021/03/04 02:44:21;;;;;;;2.13;1.92;;;;;;;;;;5029278;27;105282;-54
2021/03/04 02:46:47;;;;;;;2.80;1.95;;;;;;;;;;5014340;27;106278;-54
2021/03/04 02:49:12;;;;;;;4.32;2.60;;;;;;;;;;5031526;27;115737;-53
2021/03/04 02:51:38;;;;;;;4.70;2.85;;;;;;;;;;5030326;27;105434;-52
2021/03/04 02:54:04;;;;;;;4.47;3.00;;;;;;;;;;5018804;27;106675;-54
2021/03/04 02:56:30;;;;;;;5.20;3.20;;;;;;;;;;5028576;27;105045;-52
2021/03/04 02:58:58;;;;;;;5.32;3.35;;;;;;;;;;5026420;27;104980;-54
2021/03/04 03:01:23;;;;;;;3.58;2.65;;;;;;;;;;5026013;27;105318;-51
2021/03/04 03:03:49;;;;;;;4.55;3.10;;;;;;;;;;5028415;27;105533;-54
2021/03/04 03:06:17;;;;;;;5.05;3.10;;;;;;;;;;5028753;27;105115;-51
2021/03/04 03:08:43;;;;;;;4.57;2.65;;;;;;;;;;5013182;27;105763;-56
2021/03/04 03:11:09;;;;;;;4.35;2.83;;;;;;;;;;5014284;27;105766;-54
2021/03/04 03:13:34;;;;;;;4.50;3.00;;;;;;;;;;5014874;27;116355;-53
2021/03/04 03:16:00;;;;;;;4.63;2.97;;;;;;;;;;5029681;27;105603;-54
2021/03/04 03:18:25;;;;;;;2.92;2.28;;;;;;;;;;5031332;27;105188;-52
2021/03/04 03:20:50;;;;;;;3.33;2.30;;;;;;;;;;5029985;27;105819;-53
2021/03/04 03:23:16;;;;;;;3.97;2.53;;;;;;;;;;5031139;27;105541;-53
2021/03/04 03:25:41;;;;;;;3.35;2.45;;;;;;;;;;5027581;27;122345;-55
2021/03/04 03:28:07;;;;;;;6.50;2.72;;;;;;;;;;5024456;27;112929;-55
2021/03/04 03:30:32;;;;;;;5.43;2.92;;;;;;;;;;5028906;27;106494;-52
2021/03/04 03:33:08;;;;;;;4.00;2.72;;;;;;;;;;5027054;27;105140;-53
2021/03/04 03:35:33;;;;;;;5.78;2.90;;;;;;;;;;5029955;27;106180;-54
2021/03/04 03:37:59;;;;;;;4.45;2.47;;;;;;;;;;5031150;27;105851;-53
2021/03/04 03:40:25;;;;;;;4.40;2.80;;;;;;;;;;5029434;27;105284;-54
2021/03/04 03:42:52;;;;;;;4.85;2.70;;;;;;;;;;5027140;27;106023;-53
2021/03/04 03:45:19;;;;;;;4.75;3.00;;;;;;;;;;5025679;27;105918;-52
2021/03/04 03:47:44;;;;;;;4.85;2.47;;;;;;;;;;5026502;27;105421;-53
2021/03/04 03:50:13;;;;;;;5.03;2.78;;;;;;;;;;5010133;27;105115;-52
2021/03/04 03:52:38;;;;;;;4.60;3.03;;;;;;;;;;5024710;27;105195;-54
2021/03/04 03:55:04;;;;;;;6.05;3.15;;;;;;;;;;5008634;27;115460;-54
2021/03/04 03:57:30;;;;;;;5.45;2.85;;;;;;;;;;5028842;27;105096;-54
2021/03/04 03:59:56;;;;;;;3.28;2.00;;;;;;;;;;5018849;27;105172;-52
2021/03/04 04:02:21;;;;;;;2.80;2.15;;;;;;;;;;5011504;27;105168;-54
2021/03/04 04:04:47;;;;;;;2.83;1.95;;;;;;;;;;5012576;27;105862;-54
2021/03/04 04:07:14;;;;;;;2.63;1.80;;;;;;;;;;5016218;27;107060;-52
2021/03/04 04:09:39;;;;;;;3.28;1.90;;;;;;;;;;4994943;27;105515;-53
2021/03/04 04:12:05;;;;;;;1.88;1.48;;;;;;;;;;5029726;27;105898;-53
2021/03/04 04:14:30;;;;;;;3.15;1.92;;;;;;;;;;5026837;27;105099;-54
2021/03/04 04:16:56;;;;;;;4.43;2.50;;;;;;;;;;5035992;27;105081;-52
2021/03/04 04:19:22;;;;;;;2.17;1.50;;;;;;;;;;5015900;27;113715;-52
2021/03/04 04:21:47;;;;;;;3.35;2.15;;;;;;;;;;5011709;27;105855;-53
2021/03/04 04:24:13;;;;;;;3.10;2.03;;;;;;;;;;5009362;27;105359;-54
2021/03/04 04:26:38;;;;;;;1.33;1.15;;;;;;;;;;5009723;27;105825;-54
2021/03/04 04:29:04;;;;;;;1.73;1.42;;;;;;;;;;5029965;27;105406;-53
2021/03/04 04:31:29;;;;;;;1.75;1.40;;;;;;;;;;5028428;27;104991;-54
2021/03/04 04:33:54;;;;;;;2.20;1.70;;;;;;;;;;5027194;27;117077;-53
2021/03/04 04:36:20;;;;;;;4.03;2.33;;;;;;;;;;5030877;27;105796;-53
2021/03/04 04:38:45;;;;;;;3.40;2.28;;;;;;;;;;5027692;27;106176;-54
2021/03/04 04:41:11;;;;;;;5.53;2.65;;;;;;;;;;5033381;27;105663;-53
2021/03/04 04:43:36;;;;;;;3.58;2.50;;;;;;;;;;5026698;27;112120;-53
2021/03/04 04:46:02;;;;;;;3.88;2.75;;;;;;;;;;5027432;27;108354;-53
2021/03/04 04:48:27;;;;;;;3.08;2.25;;;;;;;;;;5027556;27;105408;-53
2021/03/04 04:50:53;;;;;;;3.08;2.17;;;;;;;;;;5028125;27;104957;-53
2021/03/04 04:53:18;;;;;;;2.95;1.80;;;;;;;;;;5036503;27;106182;-50
2021/03/04 04:55:43;;;;;;;2.55;1.58;;;;;;;;;;5026631;27;105399;-52
2021/03/04 04:58:09;;;;;;;2.17;1.65;;;;;;;;;;5028317;27;105305;-53
2021/03/04 05:00:34;;;;;;;2.72;1.60;;;;;;;;;;5030842;27;105073;-54
2021/03/04 05:03:00;;;;;;;4.07;2.00;;;;;;;;;;5027587;27;109671;-53
2021/03/04 05:05:25;;;;;;;2.75;1.80;;;;;;;;;;5028810;27;106190;-53
2021/03/04 05:07:51;;;;;;;3.17;1.73;;;;;;;;;;5027876;27;105631;-53
2021/03/04 05:10:16;;;;;;;2.78;1.73;;;;;;;;;;5032132;27;109721;-51
2021/03/04 05:12:42;;;;;;;2.95;1.77;;;;;;;;;;5030726;27;105456;-54
2021/03/04 05:15:10;;;;;;;1.98;1.52;;;;;;;;;;5034036;27;105389;-53
2021/03/04 05:17:36;;;;;;;1.80;1.45;;;;;;;;;;5029671;27;105654;-53
2021/03/04 05:20:02;;;;;;;1.95;1.55;;;;;;;;;;5028139;27;107439;-52
2021/03/04 05:22:28;;;;;;;2.08;1.77;;;;;;;;;;5035291;27;105010;-54
2021/03/04 05:24:53;;;;;;;3.28;1.95;;;;;;;;;;5029958;27;105890;-53
2021/03/04 05:27:22;;;;;;;3.60;2.17;;;;;;;;;;5030424;27;105830;-53
2021/03/04 05:29:48;;;;;;;4.50;2.25;;;;;;;;;;5030243;27;105432;-54
2021/03/04 05:32:13;;;;;;;6.13;2.63;;;;;;;;;;5027325;27;105638;-53
2021/03/04 05:34:38;;;;;;;3.42;2.35;;;;;;;;;;5031723;27;105096;-54
2021/03/04 05:37:04;;;;;;;2.28;1.70;;;;;;;;;;5032248;27;106014;-54
2021/03/04 05:39:30;;;;;;;2.92;2.40;;;;;;;;;;5032584;27;106023;-60
2021/03/04 05:41:55;;;;;;;3.58;2.00;;;;;;;;;;5031095;27;105258;-56
2021/03/04 05:44:20;;;;;;;3.17;2.05;;;;;;;;;;5018350;27;105810;-56
2021/03/04 05:46:47;;;;;;;4.10;2.13;;;;;;;;;;5031009;27;105581;-55
2021/03/04 05:49:12;;;;;;;2.42;1.52;;;;;;;;;;5028856;27;106987;-55
2021/03/04 05:51:38;;;;;;;3.40;2.17;;;;;;;;;;5029717;27;105290;-54
2021/03/04 05:54:06;;;;;;;1.95;1.65;;;;;;;;;;5013727;27;105714;-55
2021/03/04 05:56:34;;;;;;;1.73;1.50;;;;;;;;;;5031107;27;106084;-55
2021/03/04 05:58:59;;;;;;;2.30;1.65;;;;;;;;;;5030780;27;106698;-54
2021/03/04 06:01:25;;;;;;;1.42;1.25;;;;;;;;;;5012100;27;105449;-56
2021/03/04 06:03:50;;;;;;;2.45;1.48;;;;;;;;;;5029014;27;105007;-55
2021/03/04 06:06:16;;;;;;;2.45;1.52;;;;;;;;;;5017897;27;105184;-56
2021/03/04 06:08:41;;;;;;;2.50;1.15;;;;;;;;;;5028609;27;105620;-56
2021/03/04 06:11:07;;;;;;;2.45;1.40;;;;;;;;;;5030280;27;105642;-55
2021/03/04 06:13:32;;;;;;;1.55;1.40;;;;;;;;;;5016785;27;105534;-56
2021/03/04 06:16:00;;;;;;;4.20;1.73;;;;;;;;;;5025763;27;105133;-55
2021/03/04 06:18:42;;;;;;;2.85;1.88;;;;;;;;;;5031694;27;104971;-56
2021/03/04 06:21:25;;;;;;;3.17;1.92;;;;;;;;;;5030528;27;105023;-55
2021/03/04 06:23:51;;;;;;;1.45;1.35;;;;;;;;;;5013340;27;108031;-56
2021/03/04 06:26:27;;;;;;;1.58;1.33;;;;;;;;;;4996496;27;107699;-55
2021/03/04 06:28:52;;;;;;;2.03;1.40;;;;;;;;;;5030752;27;105144;-54
2021/03/04 06:31:21;;;;;;;2.10;1.63;;;;;;;;;;5029864;27;112763;-55
2021/03/04 06:33:46;;;;;;;1.67;1.33;;;;;;;;;;5032543;27;105496;-55
2021/03/04 06:36:16;;;;;;;1.25;1.05;;;;;;;;;;5032858;27;105829;-53
2021/03/04 06:38:53;;;;;;;1.23;1.13;;;;;;;;;;5028837;27;105206;-55
2021/03/04 06:41:19;;;;;;;1.50;1.20;;;;;;;;;;5032903;27;105830;-55
2021/03/04 06:43:44;;;;;;;2.67;1.40;;;;;;;;;;5030255;27;105595;-56
2021/03/04 06:46:10;;;;;;;1.52;1.20;;;;;;;;;;5029144;27;106095;-54
2021/03/04 06:48:36;;;;;;;1.27;1.10;;;;;;;;;;5033392;27;105249;-55
2021/03/04 06:51:05;;;;;;;2.45;1.60;;;;;;;;;;4987950;27;107961;-54
2021/03/04 06:53:31;;;;;;;1.80;1.25;;;;;;;;;;5018424;27;105602;-54
2021/03/04 06:56:00;;;;;;;1.95;1.52;;;;;;;;;;5031241;27;105829;-54
2021/03/04 06:58:39;;;;;;;3.80;1.60;;;;;;;;;;5032004;27;105122;-53
2021/03/04 07:01:15;;;;;;;2.80;1.45;;;;;;;;;;5027852;27;105204;-55
2021/03/04 07:03:42;;;;;;;1.92;1.40;;;;;;;;;;5029034;27;105869;-55
2021/03/04 07:06:12;;;;;;;1.67;1.38;;;;;;;;;;5030038;27;105938;-55
2021/03/04 07:08:38;;;;;;;2.33;1.70;;;;;;;;;;5027006;27;106146;-55
2021/03/04 07:11:05;;;;;;;3.50;1.73;;;;;;;;;;5031670;27;106253;-56
2021/03/04 07:13:32;;;;;;;2.13;1.55;;;;;;;;;;5030232;27;105023;-54
2021/03/04 07:16:01;;;;;;;1.85;1.50;;;;;;;;;;5020234;27;105115;-51
2021/03/04 07:18:26;;;;;;;3.00;1.58;;;;;;;;;;5019905;27;105319;-56
2021/03/04 07:20:51;;;;;;;3.88;2.20;;;;;;;;;;5016088;27;105067;-55
2021/03/04 07:23:17;;;;;;;1.63;1.38;;;;;;;;;;5028215;27;106227;-55
2021/03/04 07:25:42;;;;;;;2.97;2.22;;;;;;;;;;5017547;27;105726;-54
2021/03/04 07:28:09;;;;;;;1.80;1.33;;;;;;;;;;5009808;27;105073;-54
2021/03/04 07:30:37;;;;;;;2.75;1.73;;;;;;;;;;5029803;27;105305;-55
2021/03/04 07:33:02;;;;;;;1.30;1.05;;;;;;;;;;5023263;27;105742;-55
2021/03/04 07:35:28;;;;;;;2.03;1.42;;;;;;;;;;5012022;27;105096;-53
2021/03/04 07:37:53;;;;;;;1.10;1.00;;;;;;;;;;5035327;27;106218;-55
2021/03/04 07:40:19;;;;;;;1.20;1.10;;;;;;;;;;5030725;27;105018;-52
2021/03/04 07:42:44;;;;;;;1.00;0.90;;;;;;;;;;5018659;27;105962;-53
2021/03/04 07:45:14;;;;;;;1.42;0.98;;;;;;;;;;5012084;27;107023;-55
2021/03/04 07:47:39;;;;;;;1.23;1.13;;;;;;;;;;5025819;27;105565;-56
2021/03/04 07:50:21;;;;;;;1.95;1.13;;;;;;;;;;5027889;27;105374;-56
2021/03/04 07:52:46;;;;;;;1.23;0.90;;;;;;;;;;5029912;27;107327;-56
2021/03/04 07:55:13;;;;;;;0.85;0.82;;;;;;;;;;5035726;27;105063;-56
2021/03/04 07:57:46;;;;;;;2.08;1.35;;;;;;;;;;5028295;27;105861;-56
2021/03/04 08:00:12;;;;;;;2.45;1.27;;;;;;;;;;5031017;27;105298;-56
2021/03/04 08:02:39;;;;;;;3.55;2.22;;;;;;;;;;5030141;27;105734;-54
2021/03/04 08:05:15;;;;;;;2.10;1.40;;;;;;;;;;5023398;27;106437;-56
2021/03/04 08:07:42;;;;;;;3.42;1.88;;;;;;;;;;5008552;27;105438;-56
2021/03/04 08:10:15;;;;;;;4.22;2.58;;;;;;;;;;5007907;27;105855;-56
2021/03/04 08:12:54;;;;;;;2.60;1.40;;;;;;;;;;5023108;27;105826;-56
2021/03/04 08:15:36;;;;;;;1.35;1.00;;;;;;;;;;5023123;27;105489;-55
2021/03/04 08:18:02;;;;;;;1.58;1.38;;;;;;;;;;5029271;27;105835;-56
2021/03/04 08:20:27;;;;;;;1.30;1.10;;;;;;;;;;5024352;27;105462;-56
2021/03/04 08:22:54;;;;;;;1.40;1.02;;;;;;;;;;5027078;27;105738;-56
2021/03/04 08:25:28;;;;;;;1.60;1.15;;;;;;;;;;5024096;27;105781;-55
2021/03/04 08:27:56;;;;;;;1.30;0.98;;;;;;;;;;5010962;27;105151;-55
2021/03/04 08:30:26;;;;;;;1.85;1.20;;;;;;;;;;5024840;27;105722;-54
2021/03/04 08:32:53;;;;;;;1.05;0.95;;;;;;;;;;5026078;27;104973;-55
2021/03/04 08:35:19;;;;;;;1.52;1.15;;;;;;;;;;5024389;27;105971;-54
2021/03/04 08:37:44;;;;;;;1.20;1.10;;;;;;;;;;5027242;27;105180;-56
2021/03/04 08:40:11;;;;;;;1.60;1.35;;;;;;;;;;5025479;27;105569;-56
2021/03/04 08:42:36;;;;;;;1.77;1.20;;;;;;;;;;5027066;27;106130;-55
2021/03/04 08:45:02;;;;;;;1.60;1.10;;;;;;;;;;5026202;27;105338;-55
2021/03/04 08:47:27;;;;;;;4.47;2.65;;;;;;;;;;5027436;27;104959;-55
2021/03/04 08:49:59;;;;;;;3.78;1.73;;;;;;;;;;5008724;27;105661;-55
2021/03/04 08:52:26;;;;;;;1.80;1.23;;;;;;;;;;5025524;27;105641;-55
2021/03/04 08:54:53;;;;;;;1.98;1.25;;;;;;;;;;5028079;27;105983;-58
2021/03/04 08:57:26;;;;;;;1.30;1.05;;;;;;;;;;5026712;27;105870;-57
2021/03/04 09:00:11;;;;;;;1.48;1.15;;;;;;;;;;5029857;27;105041;-56
2021/03/04 09:02:37;;;;;;;2.10;1.30;;;;;;;;;;5025728;27;105445;-56
2021/03/04 09:05:06;;;;;;;2.72;1.52;;;;;;;;;;5009829;27;106209;-59
2021/03/04 09:07:33;;;;;;;1.38;1.10;;;;;;;;;;5026242;27;104901;-56
2021/03/04 09:10:03;;;;;;;1.50;1.17;;;;;;;;;;5027865;27;106332;-55
2021/03/04 09:12:29;;;;;;;3.90;1.40;;;;;;;;;;5024522;27;105900;-56
2021/03/04 09:14:56;;;;;;;1.70;1.35;;;;;;;;;;5034621;27;105108;-54
2021/03/04 09:17:21;;;;;;;1.55;1.20;;;;;;;;;;5023352;27;106687;-55
2021/03/04 09:19:52;;;;;;;2.05;1.35;;;;;;;;;;5025953;27;105878;-52
2021/03/04 09:22:17;;;;;;;2.03;1.45;;;;;;;;;;5023782;27;105423;-55
2021/03/04 09:24:45;;;;;;;2.17;1.50;;;;;;;;;;5026374;27;106437;-52
2021/03/04 09:27:11;;;;;;;59.08;26.27;;;;;;;;;;5021093;27;105291;-57
2021/03/04 09:29:40;;;;;;;75.18;33.47;;;;;;;;;;5024514;27;106206;-55
2021/03/04 09:32:06;;;;;;;80.18;36.58;;;;;;;;;;5026320;27;105085;-56
2021/03/04 09:34:38;;;;;;;85.18;38.63;;;;;;;;;;5023126;27;105113;-54
2021/03/04 09:37:05;;;;;;;82.30;38.42;;;;;;;;;;5025045;27;105055;-52
2021/03/04 09:39:43;;;;;;;93.50;44.38;;;;;;;;;;5025965;27;105933;-55
2021/03/04 09:42:11;;;;;;;100.38;49.42;;;;;;;;;;5025401;27;105417;-57
2021/03/04 09:44:56;;;;;;;97.47;45.85;;;;;;;;;;5026823;27;105963;-50
2021/03/04 09:47:25;;;;;;;106.78;49.15;;;;;;;;;;5023576;27;105490;-56
2021/03/04 09:49:52;;;;;;;94.40;45.80;;;;;;;;;;5027456;27;105303;-56
2021/03/04 09:52:21;;;;;;;93.38;43.40;;;;;;;;;;5027884;27;105600;-51
2021/03/04 09:54:47;;;;;;;78.57;37.35;;;;;;;;;;5028512;27;105153;-52
2021/03/04 09:57:16;;;;;;;71.32;33.22;;;;;;;;;;5029438;27;106001;-54
2021/03/04 09:59:52;;;;;;;69.15;30.13;;;;;;;;;;5028721;27;106251;-54
2021/03/04 10:02:18;;;;;;;63.40;27.67;;;;;;;;;;5028269;27;105803;-50
2021/03/04 10:04:51;;;;;;;62.25;28.63;;;;;;;;;;5029832;27;105962;-52
2021/03/04 10:07:16;;;;;;;60.67;25.55;;;;;;;;;;5032768;27;105219;-50
2021/03/04 10:09:46;;;;;;;76.78;32.03;;;;;;;;;;5037173;27;107244;-50
2021/03/04 10:12:12;;;;;;;56.30;21.38;;;;;;;;;;5029234;27;105605;-52
2021/03/04 10:14:48;;;;;;;49.47;21.67;;;;;;;;;;5028134;27;105227;-53
2021/03/04 10:17:13;;;;;;;50.72;21.35;;;;;;;;;;5010049;27;106419;-51
2021/03/04 10:19:39;;;;;;;39.88;20.17;;;;;;;;;;5025034;27;105317;-53
2021/03/04 10:22:05;;;;;;;30.27;18.05;;;;;;;;;;5029459;27;105116;-54
2021/03/04 10:24:30;;;;;;;31.00;19.55;;;;;;;;;;5020219;27;106299;-54
2021/03/04 10:26:58;;;;;;;31.70;20.42;;;;;;;;;;5029486;27;105886;-55
2021/03/04 10:29:27;;;;;;;30.45;17.95;;;;;;;;;;5031807;27;105244;-51
2021/03/04 10:31:53;;;;;;;29.65;17.40;;;;;;;;;;5029197;27;105411;-55
2021/03/04 10:34:19;;;;;;;31.33;18.75;;;;;;;;;;5026537;27;105034;-53
2021/03/04 10:36:44;;;;;;;36.28;19.83;;;;;;;;;;5026105;27;105359;-52
2021/03/04 10:39:10;;;;;;;37.47;20.63;;;;;;;;;;5025832;27;105716;-55
2021/03/04 10:41:35;;;;;;;39.10;20.77;;;;;;;;;;5026683;27;105329;-56
2021/03/04 10:44:01;;;;;;;37.50;19.95;;;;;;;;;;5027141;27;105820;-51
2021/03/04 10:46:29;;;;;;;36.25;20.27;;;;;;;;;;5026793;27;105876;-55
2021/03/04 10:48:54;;;;;;;35.35;19.02;;;;;;;;;;5008742;27;105808;-54
2021/03/04 10:51:20;;;;;;;35.50;19.83;;;;;;;;;;5029726;27;105292;-54
2021/03/04 10:53:45;;;;;;;33.38;19.15;;;;;;;;;;5027645;27;104938;-54
2021/03/04 10:56:11;;;;;;;30.42;18.25;;;;;;;;;;5026814;27;105226;-52
2021/03/04 10:58:36;;;;;;;32.70;19.17;;;;;;;;;;5028963;27;105282;-57
2021/03/04 11:01:02;;;;;;;30.35;17.90;;;;;;;;;;5028084;27;105071;-55
2021/03/04 11:03:27;;;;;;;35.88;18.90;;;;;;;;;;5028883;27;106202;-55
2021/03/04 11:05:52;;;;;;;31.15;17.60;;;;;;;;;;5027985;27;105695;-55
2021/03/04 11:08:18;;;;;;;34.05;18.20;;;;;;;;;;5027079;27;105839;-52
2021/03/04 11:10:46;;;;;;;30.35;17.05;;;;;;;;;;5031800;27;105984;-55
2021/03/04 11:13:14;;;;;;;31.00;16.70;;;;;;;;;;5027089;27;105325;-54
2021/03/04 11:15:40;;;;;;;34.97;18.58;;;;;;;;;;5036009;27;106989;-55
2021/03/04 11:18:05;;;;;;;35.50;18.10;;;;;;;;;;5027460;27;104960;-55
2021/03/04 11:20:31;;;;;;;30.70;17.05;;;;;;;;;;5027118;27;106302;-49
2021/03/04 11:22:56;;;;;;;30.42;16.73;;;;;;;;;;5026616;27;107332;-50
2021/03/04 11:25:22;;;;;;;28.83;16.38;;;;;;;;;;5026910;27;105923;-55
2021/03/04 11:27:47;;;;;;;31.60;17.42;;;;;;;;;;5027789;27;105135;-50
2021/03/04 11:30:13;;;;;;;29.80;15.77;;;;;;;;;;5028926;27;105650;-50
2021/03/04 11:32:39;;;;;;;31.35;18.38;;;;;;;;;;5026280;27;105448;-52
2021/03/04 11:35:05;;;;;;;31.05;16.92;;;;;;;;;;5026985;27;105438;-51
2021/03/04 11:37:30;;;;;;;29.35;16.60;;;;;;;;;;5025328;27;105767;-57
2021/03/04 11:39:56;;;;;;;29.98;17.00;;;;;;;;;;5023646;27;105539;-50
2021/03/04 11:42:21;;;;;;;32.38;16.95;;;;;;;;;;5026478;27;105791;-56
2021/03/04 11:44:47;;;;;;;34.83;17.35;;;;;;;;;;5025289;27;105754;-51
2021/03/04 11:47:13;;;;;;;33.00;16.92;;;;;;;;;;5024571;27;105308;-50
2021/03/04 11:49:38;;;;;;;30.20;16.25;;;;;;;;;;5026908;27;105491;-50
2021/03/04 11:52:04;;;;;;;23.33;14.02;;;;;;;;;;5027535;27;105793;-56
2021/03/04 11:54:29;;;;;;;26.60;14.95;;;;;;;;;;5030183;27;105397;-50
2021/03/04 11:56:55;;;;;;;27.73;15.40;;;;;;;;;;5035877;27;105592;-57
2021/03/04 11:59:20;;;;;;;27.65;14.15;;;;;;;;;;5027488;27;104953;-50
2021/03/04 12:01:46;;;;;;;24.60;13.73;;;;;;;;;;5025535;27;106118;-49
2021/03/04 12:04:11;;;;;;;28.35;15.35;;;;;;;;;;5026481;27;105035;-51
2021/03/04 12:06:37;;;;;;;23.50;12.80;;;;;;;;;;5028825;27;105588;-61
2021/03/04 12:09:03;;;;;;;22.52;12.30;;;;;;;;;;5028847;27;105026;-62
2021/03/04 12:11:28;;;;;;;21.92;12.07;;;;;;;;;;5026089;27;105412;-59
2021/03/04 12:13:54;;;;;;;21.60;12.05;;;;;;;;;;5028620;27;105835;-61
2021/03/04 12:16:19;;;;;;;19.35;10.25;;;;;;;;;;5032620;27;105014;-53
2021/03/04 12:18:45;;;;;;;16.48;9.10;;;;;;;;;;5027279;27;105392;-52
2021/03/04 12:21:10;;;;;;;16.73;8.73;;;;;;;;;;5025839;27;106015;-51
2021/03/04 12:23:36;;;;;;;15.02;8.30;;;;;;;;;;5025936;27;106076;-54
2021/03/04 12:26:01;;;;;;;14.35;7.53;;;;;;;;;;5022002;27;105627;-54
2021/03/04 12:28:27;;;;;;;14.48;7.93;;;;;;;;;;5025574;27;104976;-51
2021/03/04 12:30:52;;;;;;;15.82;7.78;;;;;;;;;;5026576;27;105022;-51
2021/03/04 12:33:18;;;;;;;14.65;7.88;;;;;;;;;;5025836;27;105292;-53
2021/03/04 12:35:43;;;;;;;15.20;8.10;;;;;;;;;;5025708;27;105849;-55
2021/03/04 12:38:09;;;;;;;14.85;8.07;;;;;;;;;;5030342;27;106224;-54
2021/03/04 12:40:36;;;;;;;14.55;8.50;;;;;;;;;;5027098;27;106802;-55
2021/03/04 12:43:02;;;;;;;16.58;8.43;;;;;;;;;;5026837;27;105752;-52
2021/03/04 12:45:28;;;;;;;14.70;7.60;;;;;;;;;;5017778;27;105273;-51
2021/03/04 12:47:54;;;;;;;17.70;8.88;;;;;;;;;;5027175;27;105048;-54
2021/03/04 12:50:20;;;;;;;15.70;9.02;;;;;;;;;;5027646;27;106075;-53
2021/03/04 12:52:46;;;;;;;15.52;8.63;;;;;;;;;;5027036;27;105002;-51
2021/03/04 12:55:12;;;;;;;16.75;8.70;;;;;;;;;;5027752;27;105841;-53
2021/03/04 12:57:37;;;;;;;15.40;8.45;;;;;;;;;;5024789;27;105158;-53
2021/03/04 13:00:05;;;;;;;15.45;8.75;;;;;;;;;;5031108;27;105230;-53
2021/03/04 13:02:30;;;;;;;16.80;9.00;;;;;;;;;;5025850;27;105229;-54
2021/03/04 13:04:56;;;;;;;16.00;8.70;;;;;;;;;;5027479;27;105494;-52
2021/03/04 13:07:21;;;;;;;15.45;8.73;;;;;;;;;;5025139;27;105692;-51
2021/03/04 13:09:47;;;;;;;15.68;8.35;;;;;;;;;;5025509;27;105320;-52
2021/03/04 13:12:12;;;;;;;15.35;7.85;;;;;;;;;;5026351;27;105481;-54
2021/03/04 13:14:38;;;;;;;14.88;7.75;;;;;;;;;;5025999;27;106288;-51
2021/03/04 13:17:03;;;;;;;15.45;5.75;;;;;;;;;;5025245;27;106030;-53
2021/03/04 13:19:29;;;;;;;11.32;6.00;;;;;;;;;;5027759;27;106142;-53
2021/03/04 13:21:54;;;;;;;12.38;6.25;;;;;;;;;;5025802;27;105828;-52
2021/03/04 13:24:20;;;;;;;11.75;6.25;;;;;;;;;;5026655;27;105185;-52
2021/03/04 13:26:45;;;;;;;12.52;6.70;;;;;;;;;;5013989;27;108612;-54
2021/03/04 13:29:11;;;;;;;12.57;5.00;;;;;;;;;;5028805;27;106520;-50
2021/03/04 13:31:36;;;;;;;10.57;5.22;;;;;;;;;;5029294;27;105282;-52
2021/03/04 13:34:02;;;;;;;11.25;6.35;;;;;;;;;;5025199;27;105832;-51
2021/03/04 13:36:27;;;;;;;12.27;6.22;;;;;;;;;;5025452;27;105375;-52
2021/03/04 13:38:53;;;;;;;11.45;5.88;;;;;;;;;;5032171;27;104971;-52
2021/03/04 13:41:18;;;;;;;9.50;5.38;;;;;;;;;;5030742;27;105949;-54
2021/03/04 13:43:44;;;;;;;8.65;5.05;;;;;;;;;;5025999;27;105516;-54
2021/03/04 13:46:09;;;;;;;10.73;5.30;;;;;;;;;;5031261;27;105947;-54
2021/03/04 13:48:35;;;;;;;10.65;5.40;;;;;;;;;;5036045;27;107858;-54
2021/03/04 13:51:01;;;;;;;9.38;4.85;;;;;;;;;;5028949;27;105433;-52
2021/03/04 13:53:26;;;;;;;9.82;5.43;;;;;;;;;;5028568;27;105699;-50
2021/03/04 13:55:52;;;;;;;9.00;5.07;;;;;;;;;;5027173;27;105429;-51
2021/03/04 13:58:17;;;;;;;10.13;5.10;;;;;;;;;;5027731;27;105026;-51
2021/03/04 14:00:43;;;;;;;10.32;5.38;;;;;;;;;;5030837;27;106218;-53
2021/03/04 14:03:08;;;;;;;9.93;5.32;;;;;;;;;;5034755;27;105765;-55
2021/03/04 14:05:34;;;;;;;9.80;5.30;;;;;;;;;;5028313;27;105102;-54
2021/03/04 14:07:59;;;;;;;9.82;5.13;;;;;;;;;;5025615;27;105171;-54
2021/03/04 14:10:25;;;;;;;10.88;5.57;;;;;;;;;;5029162;27;105309;-52
2021/03/04 14:12:50;;;;;;;11.23;6.00;;;;;;;;;;5011422;27;105152;-54
2021/03/04 14:15:15;;;;;;;11.25;5.88;;;;;;;;;;5026832;27;105885;-52
2021/03/04 14:17:41;;;;;;;10.13;5.85;;;;;;;;;;5027673;27;105768;-55
2021/03/04 14:20:10;;;;;;;11.32;6.63;;;;;;;;;;4996422;27;107576;-53
2021/03/04 14:22:36;;;;;;;11.75;6.90;;;;;;;;;;5026013;27;106599;-55